Time;durP1;ratioP1;P1;durP2;ratioP2;P2;SDS_P1;SDS_P2;PMS_P1;PMS_P2;Temp;Humidity;BMP_temperature;BMP_pressure;BME280_temperature;BME280_humidity;BME280_pressure;Samples;Min_cycle;Max_cycle;Signal;HPM_P1;HPM_P2
2021/05/18 00:00:00;;;;;;;0.57;0.53;;;13.70;1.00;;;;;;5112757;28;20944;-54
2021/05/18 00:02:26;;;;;;;0.77;0.60;;;13.80;1.00;;;;;;5112883;28;20445;-53
2021/05/18 00:04:51;;;;;;;1.97;0.90;;;13.90;1.00;;;;;;5107081;28;20651;-53
2021/05/18 00:07:22;;;;;;;1.80;0.77;;;13.70;1.00;;;;;;5094470;28;20475;-54
2021/05/18 00:12:34;;;;;;;0.60;0.60;;;13.70;1.00;;;;;;5113237;28;20434;-53
2021/05/18 00:15:01;;;;;;;6.50;4.50;;;13.70;1.00;;;;;;5107979;28;20432;-53
2021/05/18 00:17:28;;;;;;;0.83;0.70;;;13.60;1.00;;;;;;5079060;28;20432;-54
2021/05/18 00:19:53;;;;;;;2.20;1.17;;;13.60;1.00;;;;;;5112523;28;20948;-52
2021/05/18 00:22:19;;;;;;;2.63;0.60;;;13.70;1.00;;;;;;5094420;28;20449;-53
2021/05/18 00:24:44;;;;;;;0.70;0.60;;;13.80;1.00;;;;;;5110993;28;20181;-52
2021/05/18 00:27:10;;;;;;;1.60;1.07;;;13.80;1.00;;;;;;5093278;28;20202;-54
2021/05/18 00:29:36;;;;;;;1.50;0.80;;;13.80;1.00;;;;;;5112029;28;20219;-53
2021/05/18 00:32:01;;;;;;;1.67;0.70;;;14.00;1.00;;;;;;5110315;27;20181;-54
2021/05/18 00:34:27;;;;;;;0.60;0.60;;;14.00;1.00;;;;;;5092136;28;20178;-54
2021/05/18 00:36:53;;;;;;;2.77;0.60;;;13.90;1.00;;;;;;5101305;28;20265;-52
2021/05/18 00:39:18;;;;;;;0.70;0.60;;;13.80;1.00;;;;;;5102306;28;20186;-53
2021/05/18 00:41:46;;;;;;;2.87;1.30;;;13.80;1.00;;;;;;5111066;28;20187;-52
2021/05/18 00:44:12;;;;;;;1.53;0.60;;;13.80;1.00;;;;;;5101821;28;20471;-52
2021/05/18 00:46:38;;;;;;;0.67;0.67;;;13.90;1.00;;;;;;5112295;28;20796;-53
2021/05/18 00:49:04;;;;;;;2.20;0.60;;;13.70;1.00;;;;;;5093693;28;20186;-54
2021/05/18 00:51:30;;;;;;;0.83;0.80;;;13.80;1.00;;;;;;5112409;28;20435;-52
2021/05/18 00:53:59;;;;;;;0.67;0.67;;;13.70;1.00;;;;;;5111435;28;20451;-53
2021/05/18 00:59:00;;;;;;;1.20;1.10;;;13.70;1.00;;;;;;5111503;28;20847;-53
2021/05/18 01:01:26;;;;;;;1.10;1.00;;;13.70;1.00;;;;;;5106321;28;20436;-54
2021/05/18 01:03:53;;;;;;;0.90;0.73;;;13.80;1.00;;;;;;5093358;28;20442;-54
2021/05/18 01:08:54;;;;;;;2.60;1.13;;;13.80;1.00;;;;;;5111051;28;20507;-54
2021/05/18 01:11:23;;;;;;;2.10;1.17;;;13.90;1.00;;;;;;5111787;28;20454;-55
2021/05/18 01:13:58;;;;;;;1.13;1.03;;;14.00;1.00;;;;;;5111487;28;20453;-53
2021/05/18 01:16:26;;;;;;;1.17;0.70;;;13.90;1.00;;;;;;5080179;28;20448;-53
2021/05/18 01:18:53;;;;;;;2.87;0.73;;;14.00;1.00;;;;;;5101568;28;20932;-53
2021/05/18 01:21:19;;;;;;;1.03;0.93;;;13.80;1.00;;;;;;5111834;28;20435;-53
2021/05/18 01:23:44;;;;;;;0.97;0.83;;;13.80;1.00;;;;;;5096645;28;20447;-53
2021/05/18 01:26:12;;;;;;;0.93;0.90;;;13.90;1.00;;;;;;5096621;28;20235;-53
2021/05/18 01:28:38;;;;;;;0.93;0.93;;;13.90;1.00;;;;;;5107377;28;20613;-53
2021/05/18 01:31:05;;;;;;;1.00;0.90;;;14.00;1.00;;;;;;5111364;28;20444;-55
2021/05/18 01:33:31;;;;;;;1.20;0.77;;;14.20;1.00;;;;;;5111235;28;20177;-53
2021/05/18 01:35:58;;;;;;;4.00;1.13;;;14.40;1.00;;;;;;5111295;28;20874;-53
2021/05/18 01:38:32;;;;;;;1.10;1.00;;;14.30;1.00;;;;;;5110725;28;20186;-54
2021/05/18 01:43:52;;;;;;;0.70;0.70;;;14.50;1.00;;;;;;5111241;28;20461;-54
2021/05/18 01:46:19;;;;;;;2.03;0.87;;;14.40;1.00;;;;;;5083475;28;20795;-54
2021/05/18 01:48:48;;;;;;;1.50;1.03;;;14.40;1.00;;;;;;5109251;28;21046;-53
2021/05/18 01:51:14;;;;;;;2.43;1.20;;;14.40;1.00;;;;;;5106969;28;20518;-54
2021/05/18 01:53:40;;;;;;;0.80;0.80;;;14.40;1.00;;;;;;5109903;28;20463;-52
2021/05/18 01:58:35;;;;;;;1.87;1.47;;;14.40;1.00;;;;;;5110561;28;20241;-53
2021/05/18 02:01:01;;;;;;;2.10;1.50;;;14.30;1.00;;;;;;5092539;28;20439;-54
2021/05/18 02:03:27;;;;;;;1.97;1.33;;;14.20;1.00;;;;;;5110716;28;20447;-52
2021/05/18 02:05:53;;;;;;;1.43;1.33;;;14.20;1.00;;;;;;5111015;28;20699;-53
2021/05/18 02:08:18;;;;;;;2.00;1.50;;;14.20;1.00;;;;;;5110322;28;20459;-54
2021/05/18 02:10:45;;;;;;;2.70;1.33;;;13.90;1.00;;;;;;5091753;28;20194;-53
2021/05/18 02:13:11;;;;;;;1.60;1.50;;;14.00;1.00;;;;;;5092548;28;20178;-54
2021/05/18 02:15:45;;;;;;;2.23;1.70;;;14.00;1.00;;;;;;5111031;28;20450;-54
2021/05/18 02:20:45;;;;;;;2.20;1.83;;;14.00;1.00;;;;;;5098025;28;20451;-53
2021/05/18 02:25:55;;;;;;;1.43;1.33;;;13.90;1.00;;;;;;5101221;28;21003;-52
2021/05/18 02:28:20;;;;;;;3.27;1.80;;;14.00;1.00;;;;;;5104625;28;20472;-53
2021/05/18 02:30:48;;;;;;;2.67;1.60;;;14.00;1.00;;;;;;5085188;28;20681;-53
2021/05/18 02:33:14;;;;;;;2.63;1.60;;;14.00;1.00;;;;;;5109326;28;20182;-53
2021/05/18 02:35:40;;;;;;;2.67;1.60;;;14.00;1.00;;;;;;5081751;28;20473;-53
2021/05/18 02:38:06;;;;;;;7.30;2.13;;;14.10;1.00;;;;;;5110289;28;20475;-53
2021/05/18 02:40:34;;;;;;;3.60;2.60;;;14.10;1.00;;;;;;5103995;28;20522;-54
2021/05/18 02:42:59;;;;;;;2.43;2.10;;;14.00;1.00;;;;;;5110428;28;20247;-53
2021/05/18 02:45:41;;;;;;;3.53;2.33;;;13.90;1.00;;;;;;5110349;28;20456;-53
2021/05/18 02:50:52;;;;;;;3.00;2.40;;;13.80;1.00;;;;;;5105812;28;20439;-53
2021/05/18 02:53:17;;;;;;;3.43;2.47;;;13.70;1.00;;;;;;5098791;28;20435;-53
2021/05/18 02:56:00;;;;;;;3.17;2.87;;;13.70;1.00;;;;;;5092155;28;20181;-54
2021/05/18 02:58:27;;;;;;;2.23;2.00;;;13.60;1.00;;;;;;5106525;28;20190;-53
2021/05/18 03:00:53;;;;;;;4.57;3.03;;;13.70;1.00;;;;;;5110006;28;20435;-53
2021/05/18 03:03:18;;;;;;;2.90;2.70;;;13.80;1.00;;;;;;5110337;28;20785;-54
2021/05/18 03:05:44;;;;;;;3.70;3.40;;;13.80;1.00;;;;;;5104325;28;20194;-53
2021/05/18 03:08:11;;;;;;;4.30;2.73;;;13.80;1.00;;;;;;5091261;28;20736;-54
2021/05/18 03:10:37;;;;;;;3.20;2.90;;;13.80;1.00;;;;;;5109439;28;20435;-54
2021/05/18 03:13:03;;;;;;;4.03;3.50;;;13.90;1.00;;;;;;5101067;28;20571;-52
2021/05/18 03:15:30;;;;;;;3.37;3.07;;;13.90;1.00;;;;;;5109869;28;20555;-52
2021/05/18 03:17:56;;;;;;;5.43;3.67;;;13.80;1.00;;;;;;5109735;28;20428;-53
2021/05/18 03:20:21;;;;;;;5.07;4.17;;;13.80;1.00;;;;;;5108248;28;20443;-53
2021/05/18 03:22:47;;;;;;;7.93;4.17;;;15.20;1.00;;;;;;5100504;28;20440;-53
2021/05/18 03:25:13;;;;;;;6.10;4.10;;;13.70;1.00;;;;;;5091969;28;20194;-53
2021/05/18 03:27:42;;;;;;;4.80;4.07;;;13.70;1.00;;;;;;5109818;28;20247;-52
2021/05/18 03:30:41;;;;;;;4.30;3.80;;;13.60;1.00;;;;;;5109294;28;20435;-53
2021/05/18 03:35:41;;;;;;;4.60;4.20;;;13.70;1.00;;;;;;5109983;28;20502;-54
2021/05/18 03:40:51;;;;;;;5.17;3.60;;;13.70;1.00;;;;;;5109577;28;20431;-53
2021/05/18 03:43:36;;;;;;;4.03;3.63;;;13.60;1.00;;;;;;5107011;28;20453;-53
2021/05/18 03:54:47;;;;;;;4.70;4.30;;;13.00;42.90;;;;;;5109523;28;20470;-53
2021/05/18 04:10:48;;;;;;;6.20;5.20;;;13.00;99.90;;;;;;5111152;28;20440;-55
2021/05/18 04:18:56;;;;;;;5.90;5.37;;;13.10;99.90;;;;;;5102680;28;20989;-54
2021/05/18 04:24:25;;;;;;;6.60;5.90;;;13.20;99.90;;;;;;5106784;28;20532;-54
2021/05/18 04:40:40;;;;;;;7.33;6.47;;;13.30;99.90;;;;;;5112530;28;20445;-54
2021/05/18 04:48:46;;;;;;;8.10;6.77;;;13.20;99.90;;;;;;5110656;28;21071;-52
2021/05/18 04:51:32;;;;;;;7.40;6.20;;;13.40;99.90;;;;;;5106149;28;20439;-53
2021/05/18 04:59:28;;;;;;;7.30;6.60;;;13.20;99.90;;;;;;5087885;28;21052;-54
2021/05/18 05:07:02;;;;;;;9.30;8.33;;;13.10;99.90;;;;;;5111048;28;20531;-55
2021/05/18 05:09:30;;;;;;;10.20;9.30;;;13.20;99.90;;;;;;5101694;28;20578;-53
2021/05/18 05:14:40;;;;;;;13.53;8.63;;;13.40;99.90;;;;;;5107437;28;20543;-55
2021/05/18 05:17:06;;;;;;;11.83;9.00;;;13.30;99.90;;;;;;5085161;28;20531;-53
2021/05/18 05:19:32;;;;;;;12.97;9.90;;;13.30;99.90;;;;;;5111718;28;20201;-55
2021/05/18 05:21:59;;;;;;;10.50;9.50;;;13.30;99.90;;;;;;5111065;28;20181;-55
2021/05/18 05:24:25;;;;;;;10.23;9.17;;;13.40;99.90;;;;;;5092450;28;20466;-53
2021/05/18 05:26:53;;;;;;;11.63;9.40;;;13.50;99.90;;;;;;5111089;28;20962;-54
2021/05/18 05:29:19;;;;;;;9.93;8.80;;;13.60;99.90;;;;;;5097844;28;20447;-53
2021/05/18 05:31:46;;;;;;;9.93;8.93;;;13.70;99.90;;;;;;5111448;28;21005;-55
2021/05/18 05:34:11;;;;;;;11.03;9.90;;;13.70;99.90;;;;;;5110891;28;20447;-53
2021/05/18 05:36:38;;;;;;;10.67;9.57;;;13.70;99.90;;;;;;5111341;28;20463;-53
2021/05/18 05:39:29;;;;;;;9.73;8.83;;;13.70;99.90;;;;;;5110740;28;20177;-52
2021/05/18 05:41:55;;;;;;;11.27;9.63;;;13.90;99.90;;;;;;5110729;28;20447;-53
2021/05/18 05:44:21;;;;;;;9.77;8.77;;;14.00;99.90;;;;;;5103611;28;20537;-54
2021/05/18 05:46:47;;;;;;;10.33;8.63;;;14.10;99.90;;;;;;5108807;28;20878;-53
2021/05/18 05:49:13;;;;;;;10.40;8.30;;;14.20;94.70;;;;;;5109468;28;20490;-54
2021/05/18 05:51:39;;;;;;;9.30;7.53;;;14.20;97.90;;;;;;5111060;28;20436;-54
2021/05/18 05:54:05;;;;;;;10.20;9.07;;;14.40;48.60;;;;;;5092073;28;20227;-54
2021/05/18 05:56:30;;;;;;;8.90;8.00;;;14.40;35.20;;;;;;5110555;28;20174;-53
2021/05/18 05:58:59;;;;;;;8.70;7.90;;;14.50;14.20;;;;;;5106727;28;20995;-53
2021/05/18 06:01:24;;;;;;;8.30;7.33;;;14.40;6.50;;;;;;5104936;28;20180;-53
2021/05/18 06:03:50;;;;;;;9.17;7.87;;;14.40;4.70;;;;;;5110357;28;20453;-53
2021/05/18 06:06:15;;;;;;;9.30;8.37;;;14.20;4.80;;;;;;5110206;28;20182;-53
2021/05/18 06:08:44;;;;;;;9.93;8.63;;;14.30;1.20;;;;;;5110002;28;20316;-54
2021/05/18 06:11:16;;;;;;;8.80;7.90;;;14.30;1.00;;;;;;5099279;28;20349;-53
2021/05/18 06:48:14;;;;;;;9.90;8.90;;;14.20;1.00;;;;;;5105694;28;20481;-53
2021/05/18 06:50:39;;;;;;;11.63;8.50;;;14.00;1.00;;;;;;5108472;28;20445;-54
2021/05/18 06:53:05;;;;;;;11.20;10.10;;;14.00;2.80;;;;;;5105687;28;20439;-53
2021/05/18 06:55:32;;;;;;;10.57;9.43;;;14.10;1.00;;;;;;5099960;28;20674;-54
2021/05/18 06:58:13;;;;;;;11.03;9.93;;;15.30;1.00;;;;;;5109280;28;20182;-54
2021/05/18 07:00:42;;;;;;;9.80;8.80;;;14.00;1.00;;;;;;5109609;28;20441;-55
2021/05/18 07:03:19;;;;;;;10.30;9.10;;;13.80;1.00;;;;;;5103969;28;20444;-54
2021/05/18 07:06:03;;;;;;;10.43;9.40;;;13.80;1.00;;;;;;5103508;28;20920;-54
2021/05/18 07:10:54;;;;;;;8.93;8.03;;;13.90;1.00;;;;;;5102172;28;20952;-54
2021/05/18 07:13:20;;;;;;;6.30;5.70;;;14.10;1.00;;;;;;5105573;28;20188;-53
2021/05/18 07:15:46;;;;;;;7.20;6.40;;;14.10;1.00;;;;;;5100556;28;20639;-54
2021/05/18 07:18:11;;;;;;;8.00;7.37;;;14.00;1.00;;;;;;5098907;28;20520;-52
2021/05/18 07:20:37;;;;;;;7.70;7.00;;;13.90;1.00;;;;;;5100979;28;21471;-54
2021/05/18 07:23:08;;;;;;;7.93;6.67;;;14.00;1.00;;;;;;5104402;28;20269;-55
2021/05/18 07:25:34;;;;;;;7.73;6.80;;;14.00;1.00;;;;;;5102703;28;20542;-52
2021/05/18 07:28:01;;;;;;;10.70;7.50;;;14.10;1.00;;;;;;5107863;28;20478;-53
2021/05/18 07:30:26;;;;;;;9.27;8.27;;;14.00;1.00;;;;;;5109138;28;20458;-53
2021/05/18 07:32:52;;;;;;;9.07;7.20;;;14.10;1.00;;;;;;5110071;28;20410;-55
2021/05/18 07:35:17;;;;;;;7.93;7.13;;;14.30;1.00;;;;;;5088663;28;20248;-52
2021/05/18 07:37:43;;;;;;;10.50;6.53;;;14.50;1.00;;;;;;5080436;28;20196;-52
2021/05/18 07:40:09;;;;;;;15.47;9.60;;;14.80;1.00;;;;;;5113681;28;20212;-53
2021/05/18 07:42:35;;;;;;;9.20;7.10;;;15.00;1.00;;;;;;5113306;28;20231;-54
2021/05/18 07:45:01;;;;;;;7.27;5.57;;;15.30;1.00;;;;;;5113587;28;20435;-52
2021/05/18 07:47:34;;;;;;;6.90;6.20;;;15.00;1.00;;;;;;5102873;28;20190;-54
2021/05/18 07:50:09;;;;;;;6.83;6.07;;;14.90;1.00;;;;;;5104754;28;20460;-54
2021/05/18 08:06:15;;;;;;;7.60;6.87;;;14.70;1.00;;;;;;5113056;28;20441;-54
2021/05/18 08:08:41;;;;;;;8.00;7.20;;;14.70;1.00;;;;;;5106079;28;20466;-55
2021/05/18 08:11:07;;;;;;;13.13;7.10;;;14.80;1.00;;;;;;5106286;28;20191;-56
2021/05/18 08:13:32;;;;;;;9.00;6.80;;;15.10;1.00;;;;;;5096327;28;20186;-56
2021/05/18 09:02:14;;;;;;;7.10;4.87;;;16.40;1.00;;;;;;5111896;28;20981;-54
2021/05/18 09:35:56;;;;;;;4.73;3.30;;;17.80;1.00;;;;;;5102402;28;20426;-52
2021/05/18 10:36:02;;;;;;;5.03;4.10;;;17.20;1.00;;;;;;5108821;28;20470;-56
2021/05/18 10:38:42;;;;;;;6.47;4.30;;;17.40;1.00;;;;;;5110970;28;20435;-55
2021/05/18 10:41:15;;;;;;;7.23;4.00;;;17.60;1.00;;;;;;5098784;28;20946;-55
2021/05/18 10:43:42;;;;;;;6.03;3.83;;;17.90;1.00;;;;;;5091076;28;20433;-55
2021/05/18 10:46:20;;;;;;;4.90;4.50;;;18.20;1.00;;;;;;5090328;28;20446;-54
2021/05/18 10:49:00;;;;;;;4.47;4.07;;;18.40;1.00;;;;;;5109430;28;20467;-55
2021/05/18 10:51:49;;;;;;;6.33;5.30;;;18.00;1.00;;;;;;5110271;28;20462;-54
2021/05/18 10:54:24;;;;;;;5.27;4.40;;;17.70;1.00;;;;;;5103406;28;20824;-54
2021/05/18 10:56:56;;;;;;;4.20;3.90;;;17.30;1.00;;;;;;5100013;28;20789;-54
2021/05/18 10:59:29;;;;;;;4.37;3.80;;;16.90;1.00;;;;;;5097012;28;20929;-54
2021/05/18 11:02:06;;;;;;;4.90;3.60;;;16.90;1.00;;;;;;5094098;28;20444;-54
2021/05/18 11:04:35;;;;;;;5.03;4.30;;;17.70;1.00;;;;;;5095355;28;20577;-57
2021/05/18 11:07:03;;;;;;;4.63;3.87;;;18.00;1.00;;;;;;5104872;28;20434;-54
2021/05/18 11:09:29;;;;;;;6.10;4.53;;;18.40;1.00;;;;;;5109966;28;20462;-55
2021/05/18 11:12:25;;;;;;;4.87;4.37;;;18.90;1.00;;;;;;5111770;28;20496;-54
2021/05/18 11:15:07;;;;;;;4.40;3.73;;;18.90;1.00;;;;;;5091081;28;20461;-54
2021/05/18 11:17:35;;;;;;;5.37;4.87;;;18.80;1.00;;;;;;5113927;28;20538;-56
2021/05/18 11:20:09;;;;;;;4.97;4.53;;;19.60;1.00;;;;;;5113954;28;20475;-55
2021/05/18 11:25:53;;;;;;;6.67;4.10;;;18.10;1.00;;;;;;5112960;28;20438;-55
2021/05/18 11:28:20;;;;;;;6.00;3.97;;;18.10;1.00;;;;;;5113037;28;22427;-55
2021/05/18 11:30:48;;;;;;;5.73;3.60;;;18.20;1.00;;;;;;5079175;28;20444;-54
2021/05/18 11:33:15;;;;;;;6.30;4.50;;;18.50;1.00;;;;;;5103140;27;20444;-54
2021/05/18 11:35:42;;;;;;;4.50;4.10;;;18.70;1.00;;;;;;5107363;28;20514;-54
2021/05/18 11:38:19;;;;;;;5.33;3.90;;;18.80;1.00;;;;;;5113953;28;20484;-54
2021/05/18 11:40:50;;;;;;;6.43;4.30;;;18.80;1.00;;;;;;5113940;28;20949;-54
2021/05/18 11:43:25;;;;;;;5.57;4.70;;;19.10;1.00;;;;;;5112273;28;20769;-55
2021/05/18 11:46:12;;;;;;;9.33;6.00;;;19.80;1.00;;;;;;5111478;28;20443;-53
2021/05/18 11:48:41;;;;;;;6.80;5.30;;;20.30;1.00;;;;;;5096569;28;20479;-54
2021/05/18 11:51:08;;;;;;;7.53;5.50;;;19.60;1.00;;;;;;5095946;28;20447;-55
2021/05/18 11:53:38;;;;;;;5.40;4.63;;;19.10;1.00;;;;;;5090297;28;20437;-54
2021/05/18 11:56:24;;;;;;;5.70;5.10;;;19.00;1.00;;;;;;5112376;27;20434;-53
2021/05/18 11:58:58;;;;;;;6.90;4.60;;;18.70;1.00;;;;;;5094390;28;20464;-54
2021/05/18 12:01:24;;;;;;;5.10;4.60;;;18.70;1.00;;;;;;5110786;28;20836;-54
2021/05/18 12:04:07;;;;;;;7.80;4.90;;;18.70;1.00;;;;;;5106110;28;22380;-54
2021/05/18 12:06:36;;;;;;;7.40;5.80;;;18.70;1.00;;;;;;5112766;27;20599;-56
2021/05/18 12:09:05;;;;;;;5.80;5.20;;;18.50;1.00;;;;;;5104562;28;20982;-54
2021/05/18 12:11:31;;;;;;;6.17;5.30;;;18.50;1.00;;;;;;5111620;28;20546;-53
2021/05/18 12:13:57;;;;;;;7.00;6.30;;;18.50;1.00;;;;;;5113033;27;20914;-54
2021/05/18 12:16:25;;;;;;;7.63;6.83;;;18.00;1.00;;;;;;5082625;28;20416;-54
2021/05/18 12:18:55;;;;;;;8.70;6.67;;;17.70;1.00;;;;;;5105579;27;20835;-56
2021/05/18 12:21:27;;;;;;;8.60;7.33;;;17.90;1.00;;;;;;5110690;28;20428;-55
2021/05/18 12:24:03;;;;;;;8.03;7.23;;;17.80;1.00;;;;;;5106356;28;20598;-56
2021/05/18 12:26:29;;;;;;;7.37;5.80;;;17.50;1.00;;;;;;5107537;28;20819;-59
2021/05/18 12:29:03;;;;;;;5.80;5.17;;;19.80;1.00;;;;;;5110223;28;20474;-55
2021/05/18 12:31:37;;;;;;;6.47;4.37;;;17.70;1.00;;;;;;5094472;28;20181;-56
2021/05/18 12:34:05;;;;;;;4.47;4.00;;;17.80;1.00;;;;;;5112730;28;20480;-54
2021/05/18 12:36:44;;;;;;;5.50;4.43;;;18.00;1.00;;;;;;5112310;28;20497;-56
2021/05/18 12:39:15;;;;;;;6.47;5.30;;;18.20;1.00;;;;;;5112606;28;20470;-55
2021/05/18 12:41:47;;;;;;;5.63;5.03;;;18.20;1.00;;;;;;5110230;28;20447;-55
2021/05/18 12:44:13;;;;;;;8.00;6.13;;;18.10;1.00;;;;;;5112152;28;20410;-55
2021/05/18 12:47:03;;;;;;;6.07;4.90;;;18.30;1.00;;;;;;5110129;28;20846;-55
2021/05/18 12:49:30;;;;;;;6.70;4.83;;;18.10;1.00;;;;;;5109570;27;20201;-53
2021/05/18 12:52:15;;;;;;;5.90;5.10;;;17.60;1.00;;;;;;5102580;27;20948;-56
2021/05/18 12:54:51;;;;;;;4.53;4.10;;;17.30;1.00;;;;;;5095958;27;20973;-55
2021/05/18 12:57:24;;;;;;;4.47;4.00;;;17.20;1.00;;;;;;5097240;27;20785;-56
2021/05/18 12:59:56;;;;;;;4.47;4.07;;;17.30;1.00;;;;;;5111986;28;20443;-55
2021/05/18 13:02:52;;;;;;;3.83;3.27;;;17.60;1.00;;;;;;5109552;28;20466;-54
2021/05/18 13:05:29;;;;;;;4.87;3.37;;;17.60;1.00;;;;;;5077601;28;20452;-56
2021/05/18 13:08:12;;;;;;;3.70;3.17;;;17.80;1.00;;;;;;5092197;28;20456;-54
2021/05/18 13:10:53;;;;;;;3.93;3.13;;;18.00;1.00;;;;;;5095902;28;20999;-56
2021/05/18 13:13:21;;;;;;;4.27;2.60;;;18.10;1.00;;;;;;5112123;28;20475;-56
2021/05/18 13:15:47;;;;;;;4.67;2.97;;;17.80;1.00;;;;;;5104617;28;20440;-56
2021/05/18 13:18:15;;;;;;;4.73;3.10;;;17.70;1.00;;;;;;5111134;28;20518;-56
2021/05/18 13:20:53;;;;;;;4.20;3.17;;;17.80;1.00;;;;;;5110491;28;20792;-55
2021/05/18 13:23:34;;;;;;;6.10;3.50;;;17.90;1.00;;;;;;5111779;28;20451;-57
2021/05/18 13:28:44;;;;;;;8.97;3.93;;;18.40;1.00;;;;;;5105572;28;20503;-55
2021/05/18 13:31:10;;;;;;;4.40;3.77;;;18.70;1.00;;;;;;5110166;28;20912;-56
2021/05/18 13:33:35;;;;;;;4.67;3.77;;;18.70;1.00;;;;;;5105375;28;20707;-55
2021/05/18 13:36:01;;;;;;;4.90;3.80;;;18.60;1.00;;;;;;5110606;28;20300;-56
2021/05/18 13:38:27;;;;;;;5.60;4.03;;;18.60;1.00;;;;;;5102159;28;20697;-55
2021/05/18 13:40:53;;;;;;;5.73;4.20;;;18.70;1.00;;;;;;5083509;28;20228;-55
2021/05/18 13:43:19;;;;;;;6.50;4.83;;;18.80;1.00;;;;;;5101514;28;20504;-55
2021/05/18 13:45:45;;;;;;;6.67;4.60;;;18.50;1.00;;;;;;5105788;27;20395;-55
2021/05/18 13:48:10;;;;;;;6.33;5.10;;;18.70;1.00;;;;;;5101754;28;21034;-57
2021/05/18 13:50:38;;;;;;;7.70;5.40;;;19.00;1.00;;;;;;5093133;28;20205;-57
2021/05/18 13:53:04;;;;;;;6.93;6.00;;;19.30;1.00;;;;;;5092100;28;20206;-55
2021/05/18 13:55:30;;;;;;;6.83;5.47;;;19.60;1.00;;;;;;5090577;28;20524;-55
2021/05/18 13:57:56;;;;;;;5.70;5.07;;;19.70;1.00;;;;;;5090620;28;20873;-55
2021/05/18 14:00:21;;;;;;;6.67;6.07;;;19.80;1.00;;;;;;5078094;28;20277;-55
2021/05/18 14:02:48;;;;;;;6.70;6.00;;;19.90;1.00;;;;;;5093565;28;20185;-57
2021/05/18 14:05:20;;;;;;;6.67;6.03;;;20.00;1.00;;;;;;5108547;27;20186;-56
2021/05/18 14:10:56;;;;;;;4.87;4.47;;;20.50;1.00;;;;;;5110960;28;20438;-57
2021/05/18 14:13:22;;;;;;;6.97;5.80;;;21.60;1.00;;;;;;5092155;28;20522;-58
2021/05/18 14:15:48;;;;;;;6.80;5.77;;;21.70;1.00;;;;;;5090878;28;20443;-58
2021/05/18 14:18:15;;;;;;;7.10;4.50;;;21.90;1.00;;;;;;5110015;28;20483;-56
2021/05/18 14:20:41;;;;;;;5.13;4.60;;;21.60;1.00;;;;;;5110250;27;20215;-58
2021/05/18 14:23:07;;;;;;;6.57;5.97;;;21.80;1.00;;;;;;5110288;28;20426;-57
2021/05/18 14:25:33;;;;;;;7.60;5.50;;;22.60;1.00;;;;;;5110534;28;20520;-56
2021/05/18 14:27:59;;;;;;;7.97;5.00;;;23.30;1.00;;;;;;5109909;28;20502;-57
2021/05/18 14:30:26;;;;;;;7.37;4.93;;;22.50;1.00;;;;;;5076876;28;20828;-56
2021/05/18 14:32:51;;;;;;;5.97;5.37;;;21.40;1.00;;;;;;5110111;28;20544;-57
2021/05/18 14:35:17;;;;;;;7.20;5.30;;;20.60;1.00;;;;;;5110305;28;20545;-55
2021/05/18 14:37:51;;;;;;;6.03;4.53;;;20.10;1.00;;;;;;5091787;28;20244;-56
2021/05/18 14:45:21;;;;;;;5.87;5.13;;;20.10;1.00;;;;;;5109597;28;20255;-57
2021/05/18 14:56:12;;;;;;;5.57;3.70;;;20.80;1.00;;;;;;5004276;28;20494;-55
2021/05/18 14:58:38;;;;;;;7.63;4.10;;;22.40;1.00;;;;;;5106014;28;20418;-56
2021/05/18 15:01:04;;;;;;;5.47;4.03;;;23.20;1.00;;;;;;5110045;28;20182;-55
2021/05/18 15:03:32;;;;;;;6.40;3.80;;;23.70;1.00;;;;;;5109886;28;20202;-56
2021/05/18 15:05:59;;;;;;;5.53;4.10;;;22.70;1.00;;;;;;5085295;28;20450;-55
2021/05/18 15:08:25;;;;;;;4.30;3.73;;;23.10;1.00;;;;;;5091209;28;20520;-55
2021/05/18 15:10:54;;;;;;;4.93;3.93;;;23.40;1.00;;;;;;5107233;28;20448;-56
2021/05/18 15:13:19;;;;;;;3.53;3.23;;;22.60;1.00;;;;;;5110104;28;20427;-56
2021/05/18 15:15:45;;;;;;;4.60;3.80;;;22.20;1.00;;;;;;5103755;28;20537;-55
2021/05/18 15:18:10;;;;;;;4.20;3.80;;;21.90;1.00;;;;;;5092086;28;20190;-56
2021/05/18 15:20:36;;;;;;;4.53;3.93;;;21.70;1.00;;;;;;5102801;28;21146;-55
2021/05/18 15:23:02;;;;;;;4.87;3.40;;;22.00;1.00;;;;;;5089686;28;20727;-54
2021/05/18 15:25:28;;;;;;;6.30;4.40;;;23.00;1.00;;;;;;5104044;28;20189;-54
2021/05/18 15:27:55;;;;;;;4.20;3.70;;;24.20;1.00;;;;;;5097943;28;20543;-55
2021/05/18 15:30:20;;;;;;;4.93;4.53;;;24.40;1.00;;;;;;5097890;28;20195;-55
2021/05/18 15:32:46;;;;;;;5.10;4.23;;;25.50;1.00;;;;;;5105866;28;20505;-57
2021/05/18 15:35:11;;;;;;;7.97;4.93;;;25.30;1.00;;;;;;5096645;28;20218;-54
2021/05/18 15:37:40;;;;;;;4.60;3.70;;;25.90;1.00;;;;;;5101021;28;20250;-57
2021/05/18 15:40:06;;;;;;;4.83;4.30;;;25.90;1.00;;;;;;5092699;28;20222;-57
2021/05/18 15:42:31;;;;;;;5.57;4.50;;;25.60;1.00;;;;;;5101456;28;20453;-56
2021/05/18 15:44:57;;;;;;;6.70;4.83;;;25.00;1.00;;;;;;5097890;28;20482;-56
2021/05/18 15:47:22;;;;;;;7.73;4.90;;;24.30;1.00;;;;;;5108652;28;20209;-55
2021/05/18 15:49:48;;;;;;;5.27;4.77;;;23.50;1.00;;;;;;5107924;28;20189;-55
2021/05/18 15:52:14;;;;;;;4.40;4.00;;;23.30;1.00;;;;;;5104098;28;20190;-57
2021/05/18 15:54:40;;;;;;;4.90;4.40;;;23.90;1.00;;;;;;5098361;28;20182;-55
2021/05/18 15:57:05;;;;;;;4.70;4.30;;;24.20;1.00;;;;;;5105079;28;20280;-56
2021/05/18 15:59:31;;;;;;;4.50;4.10;;;23.70;1.00;;;;;;5110913;28;20182;-57
2021/05/18 16:01:57;;;;;;;7.30;4.50;;;22.50;1.00;;;;;;5105494;28;20178;-57
2021/05/18 16:04:23;;;;;;;5.83;4.53;;;21.60;1.00;;;;;;5101072;28;20184;-55
2021/05/18 16:06:49;;;;;;;4.83;3.90;;;20.90;1.00;;;;;;5095833;27;20300;-54
2021/05/18 16:09:15;;;;;;;4.20;3.77;;;20.40;1.00;;;;;;5105064;28;20577;-54
2021/05/18 16:11:42;;;;;;;4.20;3.77;;;19.90;1.00;;;;;;5111255;28;20177;-55
2021/05/18 16:14:08;;;;;;;4.13;3.73;;;19.80;1.00;;;;;;5109590;28;20735;-54
2021/05/18 16:16:34;;;;;;;4.10;3.70;;;19.80;1.00;;;;;;5109643;28;20414;-56
2021/05/18 16:19:00;;;;;;;4.43;3.93;;;19.90;1.00;;;;;;5111580;27;20897;-55
2021/05/18 16:21:27;;;;;;;4.87;3.90;;;19.90;1.00;;;;;;5110217;28;20443;-54
2021/05/18 16:23:55;;;;;;;4.00;3.53;;;19.90;1.00;;;;;;5096063;28;20445;-56
2021/05/18 16:26:28;;;;;;;7.67;3.90;;;19.70;1.00;;;;;;5092416;28;20447;-57
2021/05/18 16:28:55;;;;;;;4.83;3.93;;;19.40;1.00;;;;;;5109642;28;20598;-55
2021/05/18 16:31:22;;;;;;;6.80;3.97;;;19.50;1.00;;;;;;5112940;27;20407;-55
2021/05/18 16:33:48;;;;;;;4.67;3.63;;;19.90;1.00;;;;;;5103204;28;20436;-55
2021/05/18 16:36:15;;;;;;;3.47;3.17;;;20.50;1.00;;;;;;5088923;28;20482;-55
2021/05/18 16:38:42;;;;;;;3.43;3.13;;;22.10;1.00;;;;;;5112221;28;20524;-56
2021/05/18 16:41:08;;;;;;;3.23;2.73;;;20.30;1.00;;;;;;5112736;28;20443;-56
2021/05/18 16:43:34;;;;;;;3.53;3.20;;;20.30;1.00;;;;;;5097746;28;20545;-55
2021/05/18 16:46:01;;;;;;;3.40;2.33;;;20.60;1.00;;;;;;5100473;28;20525;-57
2021/05/18 16:48:27;;;;;;;2.47;2.03;;;20.50;1.00;;;;;;5106337;28;20203;-56
2021/05/18 16:50:54;;;;;;;3.07;2.37;;;20.30;1.00;;;;;;5097108;28;20443;-54
2021/05/18 16:53:21;;;;;;;3.17;2.90;;;20.40;1.00;;;;;;5108687;28;20997;-55
2021/05/18 16:55:47;;;;;;;2.77;2.40;;;20.60;1.00;;;;;;5107306;28;20444;-56
2021/05/18 16:58:13;;;;;;;3.93;3.30;;;20.50;1.00;;;;;;5111661;28;20443;-54
2021/05/18 17:00:38;;;;;;;3.17;2.80;;;19.90;1.00;;;;;;5108912;28;20847;-57
2021/05/18 17:03:05;;;;;;;3.73;2.90;;;18.90;1.00;;;;;;5100610;28;20497;-54
2021/05/18 17:05:31;;;;;;;3.03;2.80;;;18.30;1.00;;;;;;5112345;28;20182;-54
2021/05/18 17:08:02;;;;;;;3.27;2.97;;;18.00;1.00;;;;;;5111738;28;20899;-55
2021/05/18 17:10:29;;;;;;;2.70;2.47;;;17.80;1.00;;;;;;5111394;28;20492;-56
2021/05/18 17:12:54;;;;;;;2.87;2.50;;;17.60;1.00;;;;;;5111422;28;20880;-57
2021/05/18 17:15:23;;;;;;;2.73;2.53;;;17.40;1.00;;;;;;5111449;28;20587;-56
2021/05/18 17:17:50;;;;;;;3.30;3.00;;;17.30;1.00;;;;;;5109413;28;20273;-55
2021/05/18 17:20:15;;;;;;;2.93;2.20;;;17.20;1.00;;;;;;5104238;28;20539;-55
2021/05/18 17:22:41;;;;;;;3.77;1.93;;;17.10;1.00;;;;;;5099669;28;20563;-55
2021/05/18 17:25:08;;;;;;;1.83;1.60;;;17.00;1.00;;;;;;5104028;28;20242;-54
2021/05/18 17:27:35;;;;;;;3.03;2.03;;;16.90;1.00;;;;;;5092833;28;20198;-55
2021/05/18 17:30:02;;;;;;;2.80;2.10;;;16.80;1.00;;;;;;5110775;28;20443;-56
2021/05/18 17:32:27;;;;;;;2.20;1.50;;;17.00;1.00;;;;;;5093594;28;20428;-56
2021/05/18 17:34:53;;;;;;;2.00;1.83;;;17.00;1.00;;;;;;5106134;28;20476;-56
2021/05/18 17:37:18;;;;;;;3.87;2.20;;;16.70;1.00;;;;;;5108710;28;20307;-55
2021/05/18 17:39:44;;;;;;;3.30;2.50;;;16.10;1.00;;;;;;5108072;28;20363;-54
2021/05/18 17:42:10;;;;;;;2.63;2.43;;;15.00;1.00;;;;;;5106164;28;20194;-56
2021/05/18 17:44:37;;;;;;;2.10;2.00;;;14.80;1.00;;;;;;5091505;28;20751;-55
2021/05/18 17:47:03;;;;;;;3.80;2.33;;;14.30;1.00;;;;;;5079646;28;20546;-55
2021/05/18 17:49:28;;;;;;;2.40;2.20;;;14.10;1.00;;;;;;5094261;27;20507;-54
2021/05/18 17:51:54;;;;;;;2.80;2.17;;;13.90;1.00;;;;;;5091812;28;20524;-55
2021/05/18 17:54:22;;;;;;;1.93;1.83;;;14.00;1.00;;;;;;5107227;28;20254;-55
2021/05/18 17:56:48;;;;;;;1.80;1.50;;;14.00;1.00;;;;;;5105798;28;20182;-54
2021/05/18 17:59:14;;;;;;;3.00;1.83;;;14.00;1.00;;;;;;5099755;27;20949;-57